createdAt,value
2018-11-11T00:00:46.561Z,82.60
2018-11-11T00:03:16.253Z,85.43
2018-11-11T00:05:45.867Z,97.67
2018-11-11T00:08:15.497Z,86.83
2018-11-11T00:10:45.121Z,85.57
2018-11-11T00:13:14.828Z,85.87
2018-11-11T00:15:44.459Z,84.03
2018-11-11T00:18:14.084Z,89.07
2018-11-11T00:20:43.716Z,87.53
2018-11-11T00:23:13.331Z,87.83
2018-11-11T00:25:42.940Z,88.00
2018-11-11T00:28:12.540Z,79.13
2018-11-11T00:30:42.254Z,81.20
2018-11-11T00:33:11.864Z,73.23
2018-11-11T00:35:41.461Z,80.27
2018-11-11T00:38:11.092Z,83.03
2018-11-11T00:40:40.786Z,79.23
2018-11-11T00:43:10.593Z,84.80
2018-11-11T00:45:40.296Z,88.17
2018-11-11T00:48:09.980Z,92.17
2018-11-11T00:50:39.640Z,83.33
2018-11-11T00:53:09.329Z,79.73
2018-11-11T00:55:39.593Z,92.93
2018-11-11T00:58:09.328Z,88.83
2018-11-11T01:00:39.008Z,88.10
2018-11-11T01:03:08.808Z,86.80
2018-11-11T01:05:38.465Z,89.77
2018-11-11T01:08:08.145Z,85.53
2018-11-11T01:10:37.780Z,81.00
2018-11-11T01:13:07.492Z,79.43
2018-11-11T01:15:37.360Z,82.70
2018-11-11T01:18:06.965Z,86.73
2018-11-11T01:20:36.582Z,82.87
2018-11-11T01:23:06.631Z,82.80
2018-11-11T01:25:36.355Z,84.17
2018-11-11T01:28:06.234Z,84.20
2018-11-11T01:30:35.863Z,81.87
2018-11-11T01:33:05.823Z,86.30
2018-11-11T01:35:35.497Z,82.10
2018-11-11T01:38:05.293Z,82.30
2018-11-11T01:40:35.022Z,82.50
2018-11-11T01:43:04.658Z,84.50
2018-11-11T01:45:34.366Z,85.70
2018-11-11T01:48:04.020Z,78.87
2018-11-11T01:50:33.732Z,77.83
2018-11-11T01:53:03.334Z,76.60
2018-11-11T01:55:32.981Z,81.63
2018-11-11T01:58:02.615Z,77.20
2018-11-11T02:00:32.395Z,80.47
2018-11-11T02:03:02.188Z,86.43
2018-11-11T02:05:31.832Z,81.60
2018-11-11T02:08:01.508Z,75.10
2018-11-11T02:10:31.189Z,76.57
2018-11-11T02:13:00.872Z,83.27
2018-11-11T02:15:30.481Z,90.97
2018-11-11T02:18:00.094Z,88.07
2018-11-11T02:20:29.768Z,86.20
2018-11-11T02:22:59.397Z,80.93
2018-11-11T02:25:29.034Z,90.73
2018-11-11T02:27:58.699Z,78.30
2018-11-11T02:30:28.294Z,81.37
2018-11-11T02:32:57.980Z,87.03
2018-11-11T02:35:27.556Z,89.97
2018-11-11T02:37:57.179Z,76.33
2018-11-11T02:40:26.751Z,88.37
2018-11-11T02:42:56.331Z,91.03
2018-11-11T02:45:25.911Z,87.37
2018-11-11T02:47:55.511Z,88.97
2018-11-11T02:50:25.087Z,88.80
2018-11-11T02:52:54.654Z,88.67
2018-11-11T02:55:24.202Z,87.50
2018-11-11T02:57:53.810Z,90.10
2018-11-11T03:00:23.417Z,97.13
2018-11-11T03:02:53.027Z,84.67
2018-11-11T03:05:22.619Z,86.47
2018-11-11T03:07:52.242Z,96.93
2018-11-11T03:10:21.940Z,77.27
2018-11-11T03:12:51.917Z,84.10
2018-11-11T03:15:21.483Z,79.07
2018-11-11T03:17:51.121Z,92.77
2018-11-11T03:20:20.826Z,87.13
2018-11-11T03:22:50.451Z,79.17
2018-11-11T03:25:20.077Z,85.23
2018-11-11T03:27:49.703Z,83.60
2018-11-11T03:30:19.838Z,96.00
2018-11-11T03:32:49.442Z,73.87
2018-11-11T03:35:18.989Z,82.50
2018-11-11T03:37:48.573Z,82.00
2018-11-11T03:40:19.418Z,79.70
2018-11-11T03:42:49.804Z,85.17
2018-11-11T03:45:20.255Z,74.20
2018-11-11T03:47:50.934Z,77.47
2018-11-11T03:50:20.590Z,75.43
2018-11-11T03:52:50.263Z,80.10
2018-11-11T03:55:19.943Z,82.20
2018-11-11T03:57:49.641Z,88.70
2018-11-11T04:00:19.259Z,78.43
2018-11-11T04:02:48.902Z,75.23
2018-11-11T04:05:18.807Z,76.30
2018-11-11T04:07:48.383Z,77.60
2018-11-11T04:10:24.539Z,81.13
2018-11-11T04:12:54.215Z,77.50
2018-11-11T04:15:23.843Z,74.23
2018-11-11T04:17:53.467Z,78.27
2018-11-11T04:20:23.137Z,71.50
2018-11-11T04:22:52.711Z,67.97
2018-11-11T04:25:22.286Z,80.30
2018-11-11T04:27:51.903Z,72.30
2018-11-11T04:30:21.534Z,74.43
2018-11-11T04:32:51.084Z,67.67
2018-11-11T04:35:20.665Z,67.70
2018-11-11T04:37:50.231Z,72.50
2018-11-11T04:40:19.938Z,79.07
2018-11-11T04:42:49.641Z,79.00
2018-11-11T04:45:19.252Z,79.27
2018-11-11T04:47:48.802Z,79.07
2018-11-11T04:50:18.911Z,70.83
2018-11-11T04:52:48.490Z,71.43
2018-11-11T04:55:18.088Z,71.77
2018-11-11T04:57:47.677Z,75.63
2018-11-11T05:00:17.252Z,74.97
2018-11-11T05:02:46.841Z,77.97
2018-11-11T05:05:16.504Z,72.83
2018-11-11T05:07:46.106Z,81.03
2018-11-11T05:10:15.736Z,71.53
2018-11-11T05:12:45.327Z,78.53
2018-11-11T05:15:15.258Z,76.70
2018-11-11T05:17:44.877Z,73.87
2018-11-11T05:20:14.657Z,65.87
2018-11-11T05:22:44.487Z,76.30
2018-11-11T05:25:16.378Z,74.47
2018-11-11T05:27:45.956Z,70.73
2018-11-11T05:30:15.923Z,67.73
2018-11-11T05:32:45.527Z,64.17
2018-11-11T05:35:15.121Z,68.60
2018-11-11T05:37:44.814Z,71.20
2018-11-11T05:40:14.939Z,70.13
2018-11-11T05:42:45.062Z,71.67
2018-11-11T05:45:15.468Z,70.80
2018-11-11T05:47:45.206Z,70.87
2018-11-11T05:50:16.537Z,68.37
2018-11-11T05:52:47.116Z,71.20
2018-11-11T05:55:16.686Z,68.70
2018-11-11T05:57:46.256Z,75.20
2018-11-11T06:00:17.651Z,72.80
2018-11-11T06:02:47.344Z,64.30
2018-11-11T06:05:17.155Z,70.97
2018-11-11T06:07:46.728Z,70.43
2018-11-11T06:10:16.681Z,66.30
2018-11-11T06:12:46.263Z,74.10
2018-11-11T06:15:15.999Z,60.67
2018-11-11T06:17:45.582Z,83.83
2018-11-11T06:20:16.442Z,73.13
2018-11-11T06:22:46.023Z,71.23
2018-11-11T06:25:15.606Z,71.77
2018-11-11T06:27:45.270Z,71.30
2018-11-11T06:30:14.840Z,68.03
2018-11-11T06:32:44.475Z,69.63
2018-11-11T06:35:14.060Z,69.43
2018-11-11T06:37:43.707Z,79.10
2018-11-11T06:40:14.117Z,62.23
2018-11-11T06:42:43.761Z,79.90
2018-11-11T06:45:14.426Z,71.20
2018-11-11T06:47:44.708Z,70.63
2018-11-11T06:50:15.207Z,76.37
2018-11-11T06:52:45.256Z,71.17
2018-11-11T06:55:14.850Z,70.17
2018-11-11T06:57:44.438Z,72.33
2018-11-11T07:00:15.286Z,65.77
2018-11-11T07:03:01.838Z,68.77
2018-11-11T07:05:31.410Z,76.30
2018-11-11T07:08:01.076Z,66.80
2018-11-11T07:10:30.704Z,65.37
2018-11-11T07:13:00.259Z,71.53
2018-11-11T07:15:29.832Z,73.20
2018-11-11T07:17:59.463Z,70.20
2018-11-11T07:20:29.135Z,72.73
2018-11-11T07:22:58.722Z,71.80
2018-11-11T07:25:28.339Z,76.90
2018-11-11T07:27:57.891Z,71.30
2018-11-11T07:30:27.547Z,81.67
2018-11-11T07:32:57.123Z,79.03
2018-11-11T07:35:26.740Z,84.80
2018-11-11T07:37:56.374Z,74.87
2018-11-11T07:40:25.988Z,83.20
2018-11-11T07:42:55.579Z,71.50
2018-11-11T07:45:25.157Z,81.00
2018-11-11T07:47:54.754Z,88.67
2018-11-11T07:50:24.486Z,76.37
2018-11-11T07:52:54.199Z,81.40
2018-11-11T07:55:23.831Z,87.50
2018-11-11T07:57:53.438Z,80.57
2018-11-11T08:00:23.050Z,76.07
2018-11-11T08:02:52.631Z,88.17
2018-11-11T08:05:22.239Z,79.23
2018-11-11T08:07:51.888Z,77.83
2018-11-11T08:10:38.183Z,86.10
2018-11-11T08:13:09.634Z,82.50
2018-11-11T08:15:39.311Z,87.40
2018-11-11T08:18:08.888Z,86.67
2018-11-11T08:20:38.619Z,86.37
2018-11-11T08:23:08.179Z,83.70
2018-11-11T08:25:37.782Z,74.13
2018-11-11T08:28:07.344Z,75.07
2018-11-11T08:30:36.951Z,75.33
2018-11-11T08:33:06.635Z,76.37
2018-11-11T08:35:36.244Z,66.67
2018-11-11T08:38:05.992Z,77.13
2018-11-11T08:40:35.665Z,79.30
2018-11-11T08:43:05.418Z,69.80
2018-11-11T08:45:34.984Z,73.57
2018-11-11T08:48:04.613Z,79.03
2018-11-11T08:50:34.171Z,71.87
2018-11-11T08:53:03.862Z,86.17
2018-11-11T08:55:33.435Z,77.73
2018-11-11T08:58:03.113Z,67.20
2018-11-11T09:00:32.786Z,71.63
2018-11-11T09:03:02.407Z,70.97
2018-11-11T09:05:31.989Z,71.90
2018-11-11T09:08:01.579Z,65.00
2018-11-11T09:10:31.274Z,75.23
2018-11-11T09:13:00.949Z,69.90
2018-11-11T09:15:30.518Z,67.10
2018-11-11T09:18:00.163Z,62.13
2018-11-11T09:20:29.850Z,65.33
2018-11-11T09:22:59.450Z,65.77
2018-11-11T09:25:29.136Z,59.97
2018-11-11T09:27:58.783Z,72.77
2018-11-11T09:30:28.442Z,67.33
2018-11-11T09:32:57.995Z,65.93
2018-11-11T09:35:27.655Z,68.93
2018-11-11T09:37:57.201Z,68.50
2018-11-11T09:40:26.772Z,72.27
2018-11-11T09:42:56.434Z,62.77
2018-11-11T09:45:26.220Z,70.67
2018-11-11T09:47:55.854Z,75.73
2018-11-11T09:50:25.453Z,74.80
2018-11-11T09:52:55.030Z,72.97
2018-11-11T09:55:24.775Z,72.70
2018-11-11T09:57:54.599Z,67.60
2018-11-11T10:00:24.203Z,64.40
2018-11-11T10:02:59.330Z,72.77
2018-11-11T10:05:41.239Z,66.20
2018-11-11T10:08:15.988Z,86.00
2018-11-11T10:10:59.112Z,67.57
2018-11-11T10:13:33.989Z,65.30
2018-11-11T10:16:08.821Z,71.00
2018-11-11T10:18:39.957Z,75.47
2018-11-11T10:21:20.163Z,63.23
2018-11-11T10:24:02.578Z,67.93
2018-11-11T10:26:41.383Z,63.73
2018-11-11T10:29:15.905Z,65.87
2018-11-11T10:31:53.292Z,64.63
2018-11-11T10:34:56.597Z,69.20
2018-11-11T10:37:29.544Z,63.87
2018-11-11T10:40:09.017Z,64.23
2018-11-11T10:42:56.563Z,69.37
2018-11-11T10:45:31.059Z,61.40
2018-11-11T10:48:03.694Z,73.63
2018-11-11T10:50:39.254Z,63.33
2018-11-11T10:53:09.009Z,66.63
2018-11-11T10:55:38.628Z,67.80
2018-11-11T10:58:08.225Z,63.83
2018-11-11T11:00:43.136Z,56.83
2018-11-11T11:03:17.872Z,60.63
2018-11-11T11:05:47.553Z,61.77
2018-11-11T11:08:17.204Z,67.37
2018-11-11T11:10:46.837Z,64.80
2018-11-11T11:13:16.561Z,60.27
2018-11-11T11:15:46.235Z,64.20
2018-11-11T11:18:15.865Z,67.23
2018-11-11T11:20:45.525Z,64.33
2018-11-11T11:23:15.221Z,58.60
2018-11-11T11:25:44.979Z,59.50
2018-11-11T11:28:14.498Z,56.50
2018-11-11T11:30:44.185Z,62.10
2018-11-11T11:33:13.791Z,58.47
2018-11-11T11:35:43.598Z,56.77
2018-11-11T11:38:13.326Z,58.57
2018-11-11T11:40:42.988Z,55.77
2018-11-11T11:43:14.528Z,52.20
2018-11-11T11:45:44.210Z,51.27
2018-11-11T11:48:13.850Z,61.13
2018-11-11T11:50:43.426Z,59.13
2018-11-11T11:53:13.143Z,56.90
2018-11-11T11:55:42.715Z,52.40
2018-11-11T11:58:21.633Z,54.60
2018-11-11T12:00:51.243Z,69.53
2018-11-11T12:03:20.854Z,60.37
2018-11-11T12:05:50.506Z,62.47
2018-11-11T12:08:20.304Z,63.13
2018-11-11T12:10:49.894Z,66.83
2018-11-11T12:13:20.344Z,67.23
2018-11-11T12:15:50.023Z,66.27
2018-11-11T12:18:19.783Z,65.70
2018-11-11T12:20:49.420Z,69.10
2018-11-11T12:23:19.038Z,84.40
2018-11-11T12:25:48.587Z,78.30
2018-11-11T12:28:18.330Z,69.60
2018-11-11T12:30:48.154Z,72.40
2018-11-11T12:33:17.767Z,75.40
2018-11-11T12:35:47.399Z,84.80
2018-11-11T12:38:16.995Z,77.67
2018-11-11T12:40:46.578Z,67.53
2018-11-11T12:43:16.256Z,65.27
2018-11-11T12:45:45.942Z,77.60
2018-11-11T12:48:15.539Z,63.73
2018-11-11T12:50:45.111Z,70.43
2018-11-11T12:53:14.707Z,61.47
2018-11-11T12:55:44.302Z,66.50
2018-11-11T12:58:13.955Z,60.20
2018-11-11T13:00:43.580Z,63.23
2018-11-11T13:03:13.096Z,61.90
2018-11-11T13:05:42.675Z,60.30
2018-11-11T13:08:12.239Z,67.70
2018-11-11T13:10:41.909Z,68.97
2018-11-11T13:13:11.815Z,55.20
2018-11-11T13:15:41.454Z,54.90
2018-11-11T13:18:11.101Z,61.20
2018-11-11T13:20:40.724Z,56.57
2018-11-11T13:23:10.334Z,61.37
2018-11-11T13:25:46.377Z,54.50
2018-11-11T13:28:16.191Z,55.60
2018-11-11T13:30:45.838Z,52.47
2018-11-11T13:33:15.443Z,43.63
2018-11-11T13:35:45.048Z,42.50
2018-11-11T13:38:14.640Z,44.43
2018-11-11T13:40:44.267Z,45.93
2018-11-11T13:43:13.981Z,43.10
2018-11-11T13:45:43.501Z,49.00
2018-11-11T13:48:13.276Z,43.13
2018-11-11T13:50:42.913Z,50.87
2018-11-11T13:53:12.635Z,47.40
2018-11-11T13:55:42.300Z,47.90
2018-11-11T13:58:11.933Z,48.90
2018-11-11T14:00:41.613Z,54.80
2018-11-11T14:03:11.244Z,45.17
2018-11-11T14:05:40.839Z,45.83
2018-11-11T14:08:10.507Z,48.83
2018-11-11T14:10:40.172Z,47.43
2018-11-11T14:13:09.810Z,44.10
2018-11-11T14:15:39.459Z,53.60
2018-11-11T14:18:09.212Z,49.10
2018-11-11T14:20:38.720Z,46.00
2018-11-11T14:23:08.374Z,43.67
2018-11-11T14:25:38.016Z,38.90
2018-11-11T14:28:07.957Z,43.43
2018-11-11T14:30:37.615Z,46.93
2018-11-11T14:33:07.251Z,38.83
2018-11-11T14:35:36.841Z,44.70
2018-11-11T14:38:06.949Z,41.07
2018-11-11T14:40:36.562Z,60.07
2018-11-11T14:43:06.228Z,36.00
2018-11-11T14:45:35.963Z,39.53
2018-11-11T14:48:05.643Z,45.20
2018-11-11T14:50:35.316Z,38.17
2018-11-11T14:53:05.214Z,48.83
2018-11-11T14:55:34.874Z,40.17
2018-11-11T14:58:04.615Z,44.80
2018-11-11T15:00:35.449Z,37.47
2018-11-11T15:03:13.153Z,39.23
2018-11-11T15:05:42.827Z,43.17
2018-11-11T15:08:12.661Z,33.67
2018-11-11T15:10:42.649Z,31.40
2018-11-11T15:13:13.310Z,41.20
2018-11-11T15:15:42.910Z,32.30
2018-11-11T15:18:12.474Z,38.07
2018-11-11T15:20:42.249Z,34.60
2018-11-11T15:23:11.722Z,34.80
2018-11-11T15:25:41.485Z,34.70
2018-11-11T15:28:11.187Z,37.67
2018-11-11T15:30:40.933Z,30.77
2018-11-11T15:33:10.487Z,37.20
2018-11-11T15:35:40.119Z,35.37
2018-11-11T15:38:09.794Z,45.20
2018-11-11T15:40:39.696Z,43.50
2018-11-11T15:43:09.443Z,35.97
2018-11-11T15:45:39.152Z,39.10
2018-11-11T15:48:08.887Z,33.90
2018-11-11T15:50:38.540Z,37.90
2018-11-11T15:53:09.170Z,35.07
2018-11-11T15:55:39.720Z,30.43
2018-11-11T15:58:09.427Z,30.47
2018-11-11T16:00:40.697Z,36.07
2018-11-11T16:03:10.311Z,27.93
2018-11-11T16:05:39.938Z,33.27
2018-11-11T16:08:09.613Z,26.63
2018-11-11T16:10:39.262Z,26.90
2018-11-11T16:13:08.866Z,34.73
2018-11-11T16:15:39.909Z,32.30
2018-11-11T16:18:11.747Z,37.67
2018-11-11T16:20:41.422Z,30.07
2018-11-11T16:23:11.533Z,31.03
2018-11-11T16:25:41.235Z,31.77
2018-11-11T16:28:10.807Z,31.80
2018-11-11T16:30:40.562Z,38.57
2018-11-11T16:33:10.958Z,37.33
2018-11-11T16:35:40.553Z,37.97
2018-11-11T16:38:10.170Z,35.57
2018-11-11T16:40:39.970Z,38.80
2018-11-11T16:43:09.521Z,32.23
2018-11-11T16:45:39.096Z,46.43
2018-11-11T16:48:08.985Z,36.07
2018-11-11T16:50:39.051Z,33.90
2018-11-11T16:53:09.741Z,45.50
2018-11-11T16:55:39.802Z,42.43
2018-11-11T16:58:09.422Z,36.50
2018-11-11T17:00:39.426Z,39.40
2018-11-11T17:03:09.707Z,31.73
2018-11-11T17:05:40.018Z,35.77
2018-11-11T17:08:09.586Z,41.73
2018-11-11T17:10:39.599Z,33.90
2018-11-11T17:13:10.901Z,35.60
2018-11-11T17:15:40.459Z,48.60
2018-11-11T17:18:10.051Z,45.10
2018-11-11T17:20:39.765Z,33.43
2018-11-11T17:23:09.730Z,48.83
2018-11-11T17:25:39.299Z,36.10
2018-11-11T17:28:09.044Z,31.93
2018-11-11T17:30:38.697Z,27.80
2018-11-11T17:33:08.408Z,34.80
2018-11-11T17:35:38.096Z,35.73
2018-11-11T17:38:07.711Z,39.47
2018-11-11T17:40:37.302Z,40.73
2018-11-11T17:43:07.267Z,37.27
2018-11-11T17:45:36.842Z,46.30
2018-11-11T17:48:06.462Z,31.60
2018-11-11T17:50:36.055Z,34.60
2018-11-11T17:53:06.758Z,22.97
2018-11-11T17:55:36.512Z,32.50
2018-11-11T17:58:06.315Z,27.30
2018-11-11T18:00:35.951Z,26.93
2018-11-11T18:03:06.287Z,30.50
2018-11-11T18:05:35.840Z,27.93
2018-11-11T18:08:05.896Z,33.80
2018-11-11T18:10:35.548Z,29.87
2018-11-11T18:13:05.701Z,33.07
2018-11-11T18:15:35.298Z,25.70
2018-11-11T18:18:04.983Z,27.00
2018-11-11T18:20:34.636Z,25.53
2018-11-11T18:23:04.775Z,24.17
2018-11-11T18:25:34.407Z,38.77
2018-11-11T18:28:04.105Z,24.87
2018-11-11T18:30:34.842Z,25.70
2018-11-11T18:33:04.416Z,25.47
2018-11-11T18:35:34.008Z,24.53
2018-11-11T18:38:03.603Z,23.33
2018-11-11T18:40:33.254Z,18.87
2018-11-11T18:43:02.831Z,23.83
2018-11-11T18:45:32.532Z,22.80
2018-11-11T18:48:02.106Z,21.80
2018-11-11T18:50:32.942Z,26.40
2018-11-11T18:53:03.290Z,29.60
2018-11-11T18:55:32.892Z,30.60
2018-11-11T18:58:02.804Z,27.17
2018-11-11T19:00:33.619Z,26.20
2018-11-11T19:03:03.253Z,27.30
2018-11-11T19:05:32.843Z,22.70
2018-11-11T19:08:02.422Z,24.33
2018-11-11T19:10:33.342Z,27.90
2018-11-11T19:13:05.685Z,29.47
2018-11-11T19:15:35.370Z,25.10
2018-11-11T19:18:04.965Z,30.43
2018-11-11T19:20:34.546Z,36.03
2018-11-11T19:23:04.135Z,30.30
2018-11-11T19:25:33.738Z,27.07
2018-11-11T19:28:03.732Z,24.43
2018-11-11T19:30:33.661Z,27.33
2018-11-11T19:33:03.237Z,24.63
2018-11-11T19:35:32.822Z,21.00
2018-11-11T19:38:02.464Z,26.67
2018-11-11T19:40:32.034Z,22.70
2018-11-11T19:43:02.155Z,25.10
2018-11-11T19:45:32.631Z,22.77
2018-11-11T19:48:02.276Z,23.13
2018-11-11T19:50:31.900Z,22.60
2018-11-11T19:53:01.510Z,21.20
2018-11-11T19:55:31.080Z,23.43
2018-11-11T19:58:00.691Z,29.30
2018-11-11T20:00:32.177Z,20.50
2018-11-11T20:03:04.561Z,25.57
2018-11-11T20:05:35.570Z,16.40
2018-11-11T20:08:06.573Z,19.67
2018-11-11T20:10:36.207Z,18.07
2018-11-11T20:13:07.543Z,21.80
2018-11-11T20:15:38.277Z,37.77
2018-11-11T20:18:09.227Z,24.30
2018-11-11T20:20:40.721Z,24.00
2018-11-11T20:23:12.220Z,18.93
2018-11-11T20:25:41.847Z,23.70
2018-11-11T20:28:11.488Z,19.73
2018-11-11T20:30:41.061Z,18.97
2018-11-11T20:33:10.658Z,28.47
2018-11-11T20:35:40.284Z,18.93
2018-11-11T20:38:09.887Z,21.27
2018-11-11T20:40:39.579Z,18.87
2018-11-11T20:43:09.260Z,21.00
2018-11-11T20:45:39.779Z,24.70
2018-11-11T20:48:10.548Z,23.13
2018-11-11T20:50:40.178Z,20.40
2018-11-11T20:53:11.157Z,25.23
2018-11-11T20:55:40.817Z,18.97
2018-11-11T20:58:10.354Z,20.70
2018-11-11T21:00:40.091Z,24.10
2018-11-11T21:03:09.698Z,20.20
2018-11-11T21:05:39.420Z,18.40
2018-11-11T21:08:09.075Z,17.07
2018-11-11T21:10:38.801Z,20.97
2018-11-11T21:13:08.345Z,19.53
2018-11-11T21:15:38.065Z,19.90
2018-11-11T21:18:07.629Z,19.93
2018-11-11T21:20:37.339Z,17.37
2018-11-11T21:23:07.734Z,17.53
2018-11-11T21:25:37.406Z,20.70
2018-11-11T21:28:06.979Z,18.60
2018-11-11T21:30:36.678Z,20.33
2018-11-11T21:33:06.327Z,19.90
2018-11-11T21:35:35.978Z,16.23
2018-11-11T21:38:05.820Z,19.30
2018-11-11T21:40:35.377Z,16.17
2018-11-11T21:43:05.316Z,31.37
2018-11-11T21:45:35.166Z,21.43
2018-11-11T21:48:05.074Z,20.40
2018-11-11T21:50:41.513Z,18.63
2018-11-11T21:53:23.648Z,19.27
2018-11-11T21:55:53.267Z,26.97
2018-11-11T21:58:22.854Z,18.20
2018-11-11T22:00:52.489Z,26.10
2018-11-11T22:03:22.447Z,18.70
2018-11-11T22:05:52.380Z,16.20
2018-11-11T22:08:22.323Z,18.80
2018-11-11T22:10:52.300Z,15.97
2018-11-11T22:13:22.551Z,17.40
2018-11-11T22:15:52.745Z,24.90
2018-11-11T22:18:22.447Z,23.70
2018-11-11T22:20:52.060Z,16.60
2018-11-11T22:23:21.717Z,16.17
2018-11-11T22:25:51.679Z,21.07
2018-11-11T22:28:21.258Z,19.10
2018-11-11T22:30:50.958Z,17.20
2018-11-11T22:33:20.752Z,21.00
2018-11-11T22:35:50.313Z,17.80
2018-11-11T22:38:20.067Z,15.03
2018-11-11T22:40:49.676Z,19.37
2018-11-11T22:43:19.267Z,22.90
2018-11-11T22:45:48.852Z,16.60
2018-11-11T22:48:18.659Z,15.97
2018-11-11T22:50:48.862Z,19.77
2018-11-11T22:53:18.464Z,19.00
2018-11-11T22:55:48.146Z,22.90
2018-11-11T22:58:17.763Z,16.47
2018-11-11T23:00:52.723Z,17.53
2018-11-11T23:03:22.331Z,18.00
2018-11-11T23:05:51.931Z,16.00
2018-11-11T23:08:21.770Z,19.20
2018-11-11T23:10:51.358Z,19.53
2018-11-11T23:13:21.023Z,20.43
2018-11-11T23:15:50.664Z,22.17
2018-11-11T23:18:20.243Z,22.83
2018-11-11T23:20:49.826Z,18.73
2018-11-11T23:23:19.700Z,23.43
2018-11-11T23:25:49.271Z,20.80
2018-11-11T23:28:18.864Z,20.27
2018-11-11T23:30:48.730Z,22.67
2018-11-11T23:33:18.300Z,19.93
2018-11-11T23:35:47.975Z,21.33
2018-11-11T23:38:17.551Z,18.13
2018-11-11T23:40:47.150Z,23.97
2018-11-11T23:43:16.751Z,22.50
2018-11-11T23:45:46.374Z,20.10
2018-11-11T23:48:15.903Z,21.77
2018-11-11T23:50:45.480Z,20.20
2018-11-11T23:53:15.066Z,16.10
2018-11-11T23:55:44.610Z,23.90
2018-11-11T23:58:14.198Z,23.33
